Temp: 13.8°C   Baro: 1018.5mb
  Wind: 2.9mph   Dir: NW (316°)
  Rain: 0.0mm (0.0mm/hr)
  Solar: 257W/m2  Hum: 73%

10 day detailed forecast for Bath, United Kingdom

Last update: 10.07.2020 01:26
Next update: 10.07.2020 07:36
Latitude: 51.38° N
Longitude: 2.36° W
meteogram
    Temperature Precipitation Pressure Wind Humidity Clouds Fog
 04:05     20:23 Today
08:00   1018.3 mb 8 mph 69% 47%
09:00   1018.8 mb 8 mph 66% 38%
10:00   1019.0 mb 10 mph 60% 48%
11:00   1019.3 mb 11 mph 57% 65%
12:00   1019.6 mb 11 mph 53% 77%
13:00   1019.8 mb 10 mph 49% 77%
14:00   1019.8 mb 11 mph 48% 96%
15:00   1020.2 mb 11 mph 50% 70%
16:00   1020.4 mb 11 mph 49% 68%
17:00   1020.7 mb 11 mph 52% 69%
18:00   1021.1 mb 10 mph 55% 69%
19:00   1021.7 mb 9 mph 61% 43%
20:00   1022.3 mb 7 mph 65% 16%
21:00   1023.2 mb 7 mph 70% 2%
22:00   1023.9 mb 6 mph 75% 1%
23:00   1024.4 mb 7 mph 78% 0%
 04:06     20:23 Tomorrow
00:00   1024.8 mb 6 mph 82% 13%
01:00   1025.0 mb 5 mph 87% 12%
02:00   1025.1 mb 5 mph 90% 0%
03:00   1025.1 mb 4 mph 91% 0%
04:00   1025.4 mb 4 mph 91% 0%
05:00   1025.8 mb 4 mph 89% 2%
06:00   1026.3 mb 4 mph 82% 3%
07:00   1027.0 mb 5 mph 75% 2%
08:00   1027.3 mb 6 mph 71% 2%
09:00   1027.5 mb 6 mph 67% 5%
10:00   1027.7 mb 7 mph 59% 45%
11:00   1027.8 mb 8 mph 54% 88%
12:00   1027.8 mb 8 mph 52% 84%
13:00   1027.7 mb 8 mph 52% 94%
14:00   1027.6 mb 8 mph 51% 77%
15:00   1027.4 mb 7 mph 49% 73%
16:00   1027.3 mb 6 mph 49% 88%
17:00   1027.2 mb 9 mph 59% 46%
18:00   1027.2 mb 9 mph 63% 16%
19:00   1027.6 mb 7 mph 71% 1%
20:00   1028.0 mb 6 mph 79% 4%
21:00   1028.4 mb 6 mph 82% 12%
22:00   1028.5 mb 5 mph 87% 24%
23:00   1028.7 mb 4 mph 89% 15%
 04:08     20:22 Sunday 12.07.2020
00:00   1028.7 mb 4 mph 91% 7%
01:00   1028.6 mb 4 mph 93% 63%
02:00   1028.6 mb 4 mph 94% 52%
03:00   1028.6 mb 4 mph 94% 67%
04:00   1028.6 mb 4 mph 95% 9%
05:00   1028.8 mb 3 mph 94% 1%
06:00   1029.0 mb 3 mph 88% 42%
07:00   1029.2 mb 2 mph 81% 82%
08:00   1029.2 mb 1 mph 75% 90%
09:00   1029.2 mb 2 mph 67% 73%
10:00   1029.0 mb 3 mph 58% 45%
11:00   1029.0 mb 5 mph 52% 76%
12:00   1028.9 mb 5 mph 48% 82%
13:00   1028.5 mb 5 mph 47% 69%
14:00   1028.2 mb 4 mph 45% 82%
15:00   1027.7 mb 5 mph 43% 97%
16:00   1027.4 mb 7 mph 48% 49%
17:00   1027.3 mb 9 mph 53% 10%
18:00   1027.2 mb 9 mph 55% 18%
 04:09     20:21 Monday 13.07.2020
00:00   1028.3 mb 6 mph 80% 16%
06:00   1027.0 mb 7 mph 82% 18%
12:00   1025.7 mb 11 mph 47% 94%
18:00   1023.0 mb 9 mph 60% 30%
 04:10     20:20 Tuesday 14.07.2020
00:00 0.9 mm 1020.8 mb 7 mph 83% 100%
06:00 3.5 mm 1017.7 mb 8 mph 96% 100%
12:00 1.2 mm 1016.8 mb 12 mph 60% 100%
18:00   1015.9 mb 13 mph 77% 98%
 04:11     20:19 Wednesday 15.07.2020
00:00   1016.2 mb 9 mph 92% 94%
06:00 0.5 mm 1014.1 mb 11 mph 90% 99%
12:00 0.3 mm 1013.2 mb 16 mph 75% 58%
18:00 0.3 mm 1011.2 mb 17 mph 82% 98%
 04:12     20:18 Thursday 16.07.2020
00:00 0.2 mm 1012.4 mb 13 mph 91% 34%
06:00   1013.8 mb 13 mph 76% 3%
12:00 0.1 mm 1015.0 mb 19 mph 55% 100%
18:00 0.1 mm 1016.2 mb 17 mph 70% 59%
 04:13     20:17 Friday 17.07.2020
00:00   1016.7 mb 11 mph 86% 3%
06:00   1017.7 mb 11 mph 84% 3%
12:00   1018.9 mb 16 mph 48% 81%
18:00   1019.6 mb 12 mph 55% 50%
 04:15     20:16 Saturday 18.07.2020
00:00   1021.4 mb 7 mph 91% 38%
06:00   1021.9 mb 3 mph 86% 84%
12:00   1022.4 mb 8 mph 53% 99%
18:00   1021.1 mb 10 mph 65% 3%
 04:16     20:15 Sunday 19.07.2020
00:00   1022.6 mb 4 mph 84% 2%
06:00   1022.8 mb 3 mph 81% 0%